createdAt,value
2018-01-22T00:00:52.879Z,2.02
2018-01-22T00:03:20.395Z,2.02
2018-01-22T00:05:47.947Z,2.13
2018-01-22T00:08:15.491Z,2.35
2018-01-22T00:10:42.998Z,2.28
2018-01-22T00:13:10.573Z,2.16
2018-01-22T00:15:38.136Z,2.16
2018-01-22T00:18:05.650Z,2.14
2018-01-22T00:20:33.243Z,2.21
2018-01-22T00:23:00.798Z,2.21
2018-01-22T00:25:28.353Z,2.14
2018-01-22T00:27:55.940Z,2.14
2018-01-22T00:30:23.471Z,2.18
2018-01-22T00:32:51.007Z,2.16
2018-01-22T00:35:18.556Z,2.12
2018-01-22T00:37:46.119Z,2.20
2018-01-22T00:40:13.641Z,2.17
2018-01-22T00:42:41.163Z,2.16
2018-01-22T00:45:08.772Z,2.17
2018-01-22T00:47:36.278Z,2.14
2018-01-22T00:50:03.842Z,2.20
2018-01-22T00:52:31.445Z,2.23
2018-01-22T00:54:59.001Z,2.18
2018-01-22T00:57:26.590Z,2.22
2018-01-22T00:59:54.126Z,2.19
2018-01-22T01:02:21.643Z,2.25
2018-01-22T01:04:49.212Z,2.27
2018-01-22T01:07:16.769Z,2.25
2018-01-22T01:09:44.682Z,2.21
2018-01-22T01:12:12.345Z,2.29
2018-01-22T01:14:39.901Z,2.24
2018-01-22T01:17:07.473Z,2.25
2018-01-22T01:19:35.065Z,2.21
2018-01-22T01:22:02.865Z,2.23
2018-01-22T01:24:30.421Z,2.25
2018-01-22T01:26:57.959Z,2.25
2018-01-22T01:29:25.514Z,2.21
2018-01-22T01:31:53.088Z,2.22
2018-01-22T01:34:20.788Z,2.15
2018-01-22T01:36:48.360Z,2.17
2018-01-22T01:39:15.924Z,2.11
2018-01-22T01:41:43.499Z,2.23
2018-01-22T01:44:11.069Z,2.10
2018-01-22T01:46:38.615Z,2.03
2018-01-22T01:49:06.338Z,2.08
2018-01-22T01:51:33.910Z,2.05
2018-01-22T01:54:01.451Z,2.03
2018-01-22T01:56:28.965Z,2.07
2018-01-22T01:58:56.900Z,2.07
2018-01-22T02:01:24.542Z,2.02
2018-01-22T02:03:53.052Z,2.02
2018-01-22T02:06:20.619Z,1.98
2018-01-22T02:08:48.140Z,1.95
2018-01-22T02:11:15.689Z,1.90
2018-01-22T02:13:43.244Z,1.87
2018-01-22T02:16:10.781Z,1.91
2018-01-22T02:18:38.390Z,1.78
2018-01-22T02:21:05.901Z,1.80
2018-01-22T02:23:33.487Z,1.76
2018-01-22T02:26:01.077Z,1.73
2018-01-22T02:28:28.630Z,1.73
2018-01-22T02:30:56.217Z,1.75
2018-01-22T02:33:24.170Z,1.74
2018-01-22T02:35:51.744Z,1.75
2018-01-22T02:38:19.273Z,1.73
2018-01-22T02:40:46.804Z,1.79
2018-01-22T02:43:14.386Z,1.81
2018-01-22T02:45:41.920Z,1.87
2018-01-22T02:48:09.763Z,1.87
2018-01-22T02:50:37.278Z,1.86
2018-01-22T02:53:04.969Z,1.84
2018-01-22T02:55:32.588Z,1.87
2018-01-22T02:58:00.132Z,1.86
2018-01-22T03:00:27.695Z,1.88
2018-01-22T03:02:55.267Z,1.90
2018-01-22T03:05:22.766Z,1.96
2018-01-22T03:07:50.316Z,1.93
2018-01-22T03:10:17.901Z,1.95
2018-01-22T03:12:45.414Z,1.88
2018-01-22T03:15:13.009Z,1.86
2018-01-22T03:17:40.561Z,1.86
2018-01-22T03:20:08.121Z,1.83
2018-01-22T03:22:35.836Z,1.78
2018-01-22T03:25:03.388Z,1.74
2018-01-22T03:27:31.241Z,1.70
2018-01-22T03:29:58.788Z,1.76
2018-01-22T03:32:26.379Z,1.81
2018-01-22T03:34:54.055Z,1.81
2018-01-22T03:37:21.947Z,1.79
2018-01-22T03:39:49.468Z,1.81
2018-01-22T03:42:17.042Z,1.84
2018-01-22T03:44:44.764Z,1.84
2018-01-22T03:47:12.408Z,1.83
2018-01-22T03:49:39.928Z,1.87
2018-01-22T03:52:07.506Z,1.90
2018-01-22T03:54:35.204Z,1.89
2018-01-22T03:57:02.932Z,1.89
2018-01-22T03:59:30.714Z,1.88
2018-01-22T04:01:58.270Z,1.88
2018-01-22T04:04:26.210Z,1.91
2018-01-22T04:06:53.745Z,1.96
2018-01-22T04:09:21.516Z,1.95
2018-01-22T04:11:49.096Z,1.96
2018-01-22T04:14:16.868Z,1.94
2018-01-22T04:16:44.416Z,1.92
2018-01-22T04:19:11.997Z,1.94
2018-01-22T04:21:39.688Z,1.97
2018-01-22T04:24:07.273Z,1.99
2018-01-22T04:26:34.837Z,1.98
2018-01-22T04:29:02.613Z,1.91
2018-01-22T04:31:30.169Z,1.98
2018-01-22T04:33:57.725Z,2.01
2018-01-22T04:36:25.317Z,2.05
2018-01-22T04:38:52.897Z,1.98
2018-01-22T04:41:20.448Z,2.02
2018-01-22T04:43:48.469Z,2.07
2018-01-22T04:46:16.112Z,2.11
2018-01-22T04:48:43.668Z,2.05
2018-01-22T04:51:11.240Z,2.05
2018-01-22T04:53:38.829Z,2.00
2018-01-22T04:56:06.402Z,1.98
2018-01-22T04:58:34.010Z,2.00
2018-01-22T05:01:01.565Z,2.08
2018-01-22T05:03:29.116Z,2.11
2018-01-22T05:05:56.709Z,2.02
2018-01-22T05:08:24.269Z,2.03
2018-01-22T05:10:51.843Z,2.07
2018-01-22T05:13:19.416Z,2.10
2018-01-22T05:15:47.024Z,2.05
2018-01-22T05:18:14.735Z,2.07
2018-01-22T05:20:42.363Z,2.08
2018-01-22T05:23:09.940Z,2.03
2018-01-22T05:25:37.588Z,2.15
2018-01-22T05:28:05.141Z,2.13
2018-01-22T05:30:32.696Z,2.35
2018-01-22T05:33:00.538Z,2.24
2018-01-22T05:35:28.209Z,2.20
2018-01-22T05:37:55.817Z,2.30
2018-01-22T05:40:23.356Z,2.28
2018-01-22T05:42:50.883Z,2.25
2018-01-22T05:45:18.460Z,2.24
2018-01-22T05:47:46.176Z,2.35
2018-01-22T05:50:13.709Z,2.27
2018-01-22T05:52:41.532Z,2.22
2018-01-22T05:55:09.308Z,2.33
2018-01-22T05:57:36.894Z,2.31
2018-01-22T06:00:04.524Z,2.37
2018-01-22T06:02:32.081Z,2.25
2018-01-22T06:04:59.648Z,2.31
2018-01-22T06:07:27.230Z,2.43
2018-01-22T06:09:54.852Z,2.42
2018-01-22T06:12:22.462Z,2.40
2018-01-22T06:14:50.036Z,2.37
2018-01-22T06:17:17.542Z,2.33
2018-01-22T06:19:45.068Z,2.35
2018-01-22T06:22:12.631Z,2.40
2018-01-22T06:24:40.186Z,2.41
2018-01-22T06:27:07.781Z,2.52
2018-01-22T06:29:35.310Z,2.46
2018-01-22T06:32:02.840Z,2.48
2018-01-22T06:34:30.416Z,2.43
2018-01-22T06:36:57.968Z,2.43
2018-01-22T06:39:25.548Z,2.56
2018-01-22T06:41:53.062Z,2.66
2018-01-22T06:44:20.611Z,2.65
2018-01-22T06:46:48.170Z,2.60
2018-01-22T06:49:15.757Z,2.58
2018-01-22T06:51:43.280Z,2.69
2018-01-22T06:54:10.848Z,2.65
2018-01-22T06:56:38.358Z,2.65
2018-01-22T06:59:05.922Z,2.75
2018-01-22T07:01:33.470Z,2.71
2018-01-22T07:04:00.998Z,2.72
2018-01-22T07:06:28.581Z,2.66
2018-01-22T07:08:56.129Z,2.69
2018-01-22T07:11:23.661Z,2.71
2018-01-22T07:13:51.493Z,2.73
2018-01-22T07:16:19.066Z,2.86
2018-01-22T07:18:46.579Z,2.87
2018-01-22T07:21:14.149Z,2.87
2018-01-22T07:23:41.709Z,3.04
2018-01-22T07:26:09.408Z,3.01
2018-01-22T07:28:36.956Z,2.98
2018-01-22T07:31:04.477Z,3.01
2018-01-22T07:33:32.078Z,2.90
2018-01-22T07:35:59.637Z,3.19
2018-01-22T07:38:27.205Z,3.05
2018-01-22T07:40:54.944Z,3.06
2018-01-22T07:43:22.477Z,2.97
2018-01-22T07:45:50.034Z,3.06
2018-01-22T07:48:17.653Z,3.11
2018-01-22T07:50:45.339Z,3.10
2018-01-22T07:53:12.872Z,3.13
2018-01-22T07:55:40.462Z,3.10
2018-01-22T07:58:08.154Z,3.19
2018-01-22T08:00:35.898Z,3.20
2018-01-22T08:03:03.461Z,3.24
2018-01-22T08:05:31.053Z,3.12
2018-01-22T08:07:58.569Z,3.19
2018-01-22T08:10:26.151Z,3.23
2018-01-22T08:12:53.696Z,3.15
2018-01-22T08:15:21.297Z,3.29
2018-01-22T08:17:48.827Z,3.29
2018-01-22T08:20:16.396Z,3.51
2018-01-22T08:22:44.094Z,3.40
2018-01-22T08:25:11.705Z,3.69
2018-01-22T08:27:39.403Z,3.50
2018-01-22T08:30:07.106Z,3.47
2018-01-22T08:32:34.636Z,3.58
2018-01-22T08:35:02.194Z,3.79
2018-01-22T08:37:29.750Z,3.48
2018-01-22T08:39:57.300Z,3.49
2018-01-22T08:42:24.883Z,3.45
2018-01-22T08:44:53.486Z,3.70
2018-01-22T08:47:21.406Z,3.92
2018-01-22T08:49:48.937Z,3.60
2018-01-22T08:52:16.481Z,3.75
2018-01-22T08:54:44.188Z,3.69
2018-01-22T08:57:11.737Z,3.76
2018-01-22T08:59:39.298Z,3.81
2018-01-22T09:02:08.081Z,3.76
2018-01-22T09:04:36.063Z,3.97
2018-01-22T09:07:03.575Z,3.87
2018-01-22T09:09:31.161Z,3.87
2018-01-22T09:11:58.721Z,3.87
2018-01-22T09:14:26.285Z,3.83
2018-01-22T09:16:53.881Z,3.86
2018-01-22T09:19:21.472Z,3.78
2018-01-22T09:21:49.030Z,3.83
2018-01-22T09:24:16.547Z,3.96
2018-01-22T09:26:44.379Z,3.94
2018-01-22T09:29:11.933Z,3.98
2018-01-22T09:31:39.561Z,4.00
2018-01-22T09:34:07.125Z,4.03
2018-01-22T09:36:34.798Z,4.16
2018-01-22T09:39:02.407Z,4.12
2018-01-22T09:41:29.937Z,4.13
2018-01-22T09:43:57.489Z,4.14
2018-01-22T09:46:25.042Z,4.17
2018-01-22T09:48:52.622Z,4.24
2018-01-22T09:51:20.144Z,4.22
2018-01-22T09:53:47.784Z,4.33
2018-01-22T09:56:15.588Z,4.27
2018-01-22T09:58:43.151Z,4.30
2018-01-22T10:01:10.808Z,4.32
2018-01-22T10:03:38.357Z,4.40
2018-01-22T10:06:05.927Z,4.42
2018-01-22T10:08:33.872Z,4.50
2018-01-22T10:11:01.463Z,4.54
2018-01-22T10:13:29.034Z,4.67
2018-01-22T10:15:56.624Z,4.67
2018-01-22T10:18:24.160Z,4.73
2018-01-22T10:20:51.717Z,4.81
2018-01-22T10:23:19.283Z,4.84
2018-01-22T10:25:46.850Z,4.88
2018-01-22T10:28:14.765Z,4.98
2018-01-22T10:30:42.329Z,5.05
2018-01-22T10:33:09.876Z,5.20
2018-01-22T10:35:37.490Z,5.26
2018-01-22T10:38:05.037Z,5.29
2018-01-22T10:40:32.567Z,5.39
2018-01-22T10:43:00.132Z,5.44
2018-01-22T10:45:27.660Z,5.53
2018-01-22T10:47:55.620Z,5.62
2018-01-22T10:50:23.176Z,5.77
2018-01-22T10:52:50.697Z,5.62
2018-01-22T10:55:18.423Z,5.68
2018-01-22T10:57:46.028Z,5.73
2018-01-22T11:00:13.596Z,5.87
2018-01-22T11:02:41.107Z,5.75
2018-01-22T11:05:08.649Z,5.75
2018-01-22T11:07:36.175Z,5.85
2018-01-22T11:10:03.755Z,5.84
2018-01-22T11:12:31.377Z,5.92
2018-01-22T11:14:58.898Z,5.80
2018-01-22T11:17:26.518Z,5.75
2018-01-22T11:19:54.100Z,5.90
2018-01-22T11:22:21.648Z,5.89
2018-01-22T11:24:49.416Z,5.96
2018-01-22T11:27:16.979Z,5.95
2018-01-22T11:29:44.561Z,5.95
2018-01-22T11:32:12.129Z,5.95
2018-01-22T11:34:39.708Z,5.90
2018-01-22T11:37:07.224Z,6.05
2018-01-22T11:39:34.984Z,6.16
2018-01-22T11:42:02.490Z,6.12
2018-01-22T11:44:30.088Z,6.01
2018-01-22T11:46:57.651Z,6.35
2018-01-22T11:49:25.461Z,6.20
2018-01-22T11:51:53.035Z,6.06
2018-01-22T11:54:20.549Z,6.19
2018-01-22T11:56:48.156Z,6.07
2018-01-22T11:59:15.704Z,6.09
2018-01-22T12:01:43.238Z,6.01
2018-01-22T12:04:10.789Z,6.09
2018-01-22T12:06:38.302Z,6.11
2018-01-22T12:09:05.874Z,6.38
2018-01-22T12:11:33.433Z,6.28
2018-01-22T12:14:01.008Z,6.46
2018-01-22T12:16:28.573Z,6.61
2018-01-22T12:18:56.148Z,6.57
2018-01-22T12:21:23.722Z,6.59
2018-01-22T12:23:51.258Z,6.47
2018-01-22T12:26:18.784Z,6.38
2018-01-22T12:28:46.483Z,6.48
2018-01-22T12:31:14.069Z,6.46
2018-01-22T12:33:41.629Z,6.49
2018-01-22T12:36:09.166Z,6.49
2018-01-22T12:38:36.751Z,6.70
2018-01-22T12:41:04.274Z,6.53
2018-01-22T12:43:31.880Z,6.45
2018-01-22T12:45:59.456Z,6.42
2018-01-22T12:48:27.103Z,6.57
2018-01-22T12:50:54.845Z,6.57
2018-01-22T12:53:22.406Z,6.60
2018-01-22T12:55:49.986Z,6.60
2018-01-22T12:58:17.536Z,6.60
2018-01-22T13:00:45.090Z,6.63
2018-01-22T13:03:12.699Z,6.83
2018-01-22T13:05:40.253Z,6.58
2018-01-22T13:08:07.902Z,6.59
2018-01-22T13:10:35.429Z,6.68
2018-01-22T13:13:02.989Z,6.71
2018-01-22T13:15:30.561Z,6.61
2018-01-22T13:17:58.182Z,6.79
2018-01-22T13:20:26.108Z,6.75
2018-01-22T13:22:53.634Z,6.61
2018-01-22T13:25:21.190Z,6.78
2018-01-22T13:27:48.887Z,6.64
2018-01-22T13:30:16.431Z,6.79
2018-01-22T13:32:44.352Z,6.72
2018-01-22T13:35:11.872Z,6.75
2018-01-22T13:37:39.408Z,6.76
2018-01-22T13:40:12.807Z,6.68
2018-01-22T13:42:40.356Z,6.70
2018-01-22T13:45:07.891Z,6.60
2018-01-22T13:47:35.460Z,6.60
2018-01-22T13:50:03.198Z,6.64
2018-01-22T13:52:30.754Z,6.65
2018-01-22T13:54:58.342Z,6.66
2018-01-22T13:57:25.987Z,6.63
2018-01-22T13:59:53.559Z,6.65
2018-01-22T14:02:21.164Z,6.76
2018-01-22T14:04:48.721Z,6.58
2018-01-22T14:07:16.226Z,6.73
2018-01-22T14:09:43.797Z,6.69
2018-01-22T14:12:11.323Z,6.53
2018-01-22T14:14:39.243Z,6.52
2018-01-22T14:17:06.768Z,6.58
2018-01-22T14:19:34.303Z,6.53
2018-01-22T14:22:01.892Z,6.56
2018-01-22T14:24:29.466Z,6.51
2018-01-22T14:26:56.979Z,6.76
2018-01-22T14:29:24.565Z,6.62
2018-01-22T14:31:52.132Z,6.55
2018-01-22T14:34:19.688Z,6.47
2018-01-22T14:36:47.264Z,6.48
2018-01-22T14:39:14.823Z,6.49
2018-01-22T14:41:42.777Z,6.45
2018-01-22T14:44:10.350Z,6.50
2018-01-22T14:46:37.917Z,6.54
2018-01-22T14:49:05.485Z,6.60
2018-01-22T14:51:33.035Z,6.53
2018-01-22T14:54:00.601Z,6.48
2018-01-22T14:56:28.169Z,6.48
2018-01-22T14:58:55.750Z,6.42
2018-01-22T15:01:23.290Z,6.38
2018-01-22T15:03:50.896Z,6.41
2018-01-22T15:06:18.466Z,6.36
2018-01-22T15:08:46.158Z,6.35
2018-01-22T15:11:13.728Z,6.33
2018-01-22T15:13:41.607Z,6.34
2018-01-22T15:16:09.130Z,6.28
2018-01-22T15:18:36.808Z,6.34
2018-01-22T15:21:04.411Z,6.29
2018-01-22T15:23:31.932Z,6.28
2018-01-22T15:25:59.519Z,6.29
2018-01-22T15:28:27.137Z,6.28
2018-01-22T15:30:54.664Z,6.24
2018-01-22T15:33:22.235Z,6.22
2018-01-22T15:35:49.859Z,6.25
2018-01-22T15:38:17.375Z,6.23
2018-01-22T15:40:44.914Z,6.24
2018-01-22T15:43:12.507Z,6.22
2018-01-22T15:45:40.048Z,6.21
2018-01-22T15:48:07.595Z,6.23
2018-01-22T15:50:35.169Z,6.25
2018-01-22T15:53:02.732Z,6.18
2018-01-22T15:55:30.438Z,6.19
2018-01-22T15:57:57.946Z,6.24
2018-01-22T16:00:25.484Z,6.18
2018-01-22T16:02:53.024Z,6.16
2018-01-22T16:05:20.559Z,6.16
2018-01-22T16:07:48.143Z,6.11
2018-01-22T16:10:15.691Z,6.10
2018-01-22T16:12:43.511Z,6.15
2018-01-22T16:15:11.025Z,6.09
2018-01-22T16:17:38.637Z,6.14
2018-01-22T16:20:06.222Z,6.09
2018-01-22T16:22:33.788Z,6.12
2018-01-22T16:25:01.690Z,6.14
2018-01-22T16:27:29.241Z,6.12
2018-01-22T16:29:56.754Z,6.12
2018-01-22T16:32:24.350Z,6.11
2018-01-22T16:34:51.868Z,6.12
2018-01-22T16:37:19.416Z,6.12
2018-01-22T16:39:47.014Z,6.11
2018-01-22T16:42:14.587Z,6.10
2018-01-22T16:44:42.174Z,6.11
2018-01-22T16:47:15.299Z,6.14
2018-01-22T16:49:42.812Z,6.11
2018-01-22T16:52:10.704Z,6.17
2018-01-22T16:54:38.256Z,6.11
2018-01-22T16:57:05.776Z,6.13
2018-01-22T16:59:33.481Z,6.18
2018-01-22T17:02:01.716Z,6.22
2018-01-22T17:04:29.232Z,6.16
2018-01-22T17:06:56.797Z,6.12
2018-01-22T17:09:24.339Z,6.11
2018-01-22T17:11:51.884Z,6.13
2018-01-22T17:14:19.459Z,6.10
2018-01-22T17:16:47.024Z,6.06
2018-01-22T17:19:14.568Z,6.08
2018-01-22T17:21:42.156Z,6.11
2018-01-22T17:24:09.720Z,6.07
2018-01-22T17:26:37.412Z,6.04
2018-01-22T17:29:04.992Z,6.05
2018-01-22T17:31:32.574Z,6.06
2018-01-22T17:34:00.433Z,6.09
2018-01-22T17:36:28.037Z,6.17
2018-01-22T17:38:55.937Z,6.07
2018-01-22T17:41:23.501Z,6.05
2018-01-22T17:43:51.145Z,6.08
2018-01-22T17:46:18.783Z,6.09
2018-01-22T17:48:46.308Z,6.08
2018-01-22T17:51:13.886Z,6.14
2018-01-22T17:53:41.407Z,6.04
2018-01-22T17:56:08.951Z,6.19
2018-01-22T17:58:36.535Z,6.08
2018-01-22T18:01:04.114Z,6.12
2018-01-22T18:03:31.687Z,6.06
2018-01-22T18:05:59.179Z,6.07
2018-01-22T18:08:26.754Z,6.08
2018-01-22T18:10:54.308Z,6.05
2018-01-22T18:13:21.900Z,6.13
2018-01-22T18:15:49.422Z,6.08
2018-01-22T18:18:16.977Z,6.07
2018-01-22T18:20:44.491Z,6.03
2018-01-22T18:23:12.045Z,6.06
2018-01-22T18:25:39.579Z,6.16
2018-01-22T18:28:07.176Z,6.07
2018-01-22T18:30:34.749Z,6.06
2018-01-22T18:33:02.321Z,6.02
2018-01-22T18:35:29.910Z,6.02
2018-01-22T18:37:57.468Z,6.05
2018-01-22T18:40:25.055Z,6.04
2018-01-22T18:42:52.648Z,6.11
2018-01-22T18:45:20.254Z,6.03
2018-01-22T18:47:47.776Z,6.11
2018-01-22T18:50:15.316Z,6.08
2018-01-22T18:52:43.191Z,5.98
2018-01-22T18:55:10.729Z,6.07
2018-01-22T18:57:38.248Z,6.17
2018-01-22T19:00:06.147Z,6.06
2018-01-22T19:02:33.896Z,6.05
2018-01-22T19:05:01.455Z,6.01
2018-01-22T19:07:29.117Z,6.08
2018-01-22T19:09:56.682Z,5.95
2018-01-22T19:12:24.244Z,5.97
2018-01-22T19:14:51.773Z,6.13
2018-01-22T19:17:19.347Z,5.98
2018-01-22T19:19:46.999Z,5.98
2018-01-22T19:22:14.539Z,5.92
2018-01-22T19:24:42.080Z,6.01
2018-01-22T19:27:09.661Z,5.93
2018-01-22T19:29:37.191Z,5.95
2018-01-22T19:32:04.805Z,5.94
2018-01-22T19:34:32.332Z,5.97
2018-01-22T19:37:00.026Z,5.97
2018-01-22T19:39:27.694Z,5.94
2018-01-22T19:41:55.254Z,5.93
2018-01-22T19:44:22.824Z,6.12
2018-01-22T19:46:50.374Z,5.98
2018-01-22T19:49:17.983Z,5.93
2018-01-22T19:51:45.657Z,5.96
2018-01-22T19:54:14.190Z,6.00
2018-01-22T19:56:41.805Z,5.99
2018-01-22T19:59:09.365Z,5.95
2018-01-22T20:01:36.934Z,5.89
2018-01-22T20:04:04.491Z,5.91
2018-01-22T20:06:32.047Z,5.96
2018-01-22T20:08:59.646Z,5.90
2018-01-22T20:11:27.233Z,5.97
2018-01-22T20:13:54.794Z,5.94
2018-01-22T20:16:22.388Z,5.88
2018-01-22T20:18:49.935Z,5.91
2018-01-22T20:21:17.457Z,5.91
2018-01-22T20:23:45.380Z,6.07
2018-01-22T20:26:12.925Z,5.90
2018-01-22T20:28:40.445Z,5.95
2018-01-22T20:31:08.047Z,6.00
2018-01-22T20:33:35.620Z,5.92
2018-01-22T20:36:03.178Z,5.92
2018-01-22T20:38:30.744Z,5.91
2018-01-22T20:40:58.304Z,5.94
2018-01-22T20:43:25.900Z,5.89
2018-01-22T20:45:53.463Z,5.94
2018-01-22T20:48:21.178Z,5.94
2018-01-22T20:50:48.774Z,5.95
2018-01-22T20:53:16.324Z,5.96
2018-01-22T20:55:43.908Z,6.00
2018-01-22T20:58:11.428Z,5.92
2018-01-22T21:00:39.054Z,5.88
2018-01-22T21:03:06.613Z,5.84
2018-01-22T21:05:34.212Z,5.80
2018-01-22T21:08:01.876Z,5.82
2018-01-22T21:10:29.420Z,5.81
2018-01-22T21:12:57.132Z,5.82
2018-01-22T21:15:24.652Z,5.77
2018-01-22T21:17:52.220Z,5.79
2018-01-22T21:20:19.760Z,5.81
2018-01-22T21:22:47.507Z,5.78
2018-01-22T21:25:15.093Z,5.75
2018-01-22T21:27:42.987Z,5.75
2018-01-22T21:30:10.570Z,5.82
2018-01-22T21:32:38.134Z,5.76
2018-01-22T21:35:05.706Z,5.75
2018-01-22T21:37:33.253Z,5.72
2018-01-22T21:40:00.918Z,5.75
2018-01-22T21:42:28.558Z,5.73
2018-01-22T21:44:56.108Z,5.71
2018-01-22T21:47:23.683Z,5.67
2018-01-22T21:49:51.627Z,5.71
2018-01-22T21:52:19.298Z,5.71
2018-01-22T21:54:46.871Z,5.70
2018-01-22T21:57:14.448Z,5.71
2018-01-22T21:59:42.022Z,5.72
2018-01-22T22:02:09.536Z,5.70
2018-01-22T22:04:37.067Z,5.73
2018-01-22T22:07:04.800Z,5.70
2018-01-22T22:09:32.319Z,5.67
2018-01-22T22:11:59.982Z,5.89
2018-01-22T22:14:27.532Z,5.87
2018-01-22T22:16:55.412Z,5.70
2018-01-22T22:19:22.931Z,5.68
2018-01-22T22:21:50.443Z,5.72
2018-01-22T22:24:18.027Z,5.72
2018-01-22T22:26:45.595Z,5.72
2018-01-22T22:29:13.197Z,5.71
2018-01-22T22:31:40.769Z,5.69
2018-01-22T22:34:08.291Z,5.64
2018-01-22T22:36:35.858Z,5.67
2018-01-22T22:39:03.466Z,5.79
2018-01-22T22:41:31.011Z,5.69
2018-01-22T22:43:58.860Z,5.62
2018-01-22T22:46:26.426Z,5.59
2018-01-22T22:48:53.973Z,5.60
2018-01-22T22:51:21.667Z,5.63
2018-01-22T22:53:49.241Z,5.61
2018-01-22T22:56:16.821Z,5.66
2018-01-22T22:58:44.360Z,5.65
2018-01-22T23:01:11.938Z,5.65
2018-01-22T23:03:39.880Z,5.62
2018-01-22T23:06:07.423Z,5.61
2018-01-22T23:08:34.964Z,5.66
2018-01-22T23:11:02.574Z,5.78
2018-01-22T23:13:30.116Z,5.67
2018-01-22T23:15:57.668Z,5.71
2018-01-22T23:18:25.252Z,5.68
2018-01-22T23:20:52.795Z,5.70
2018-01-22T23:23:20.638Z,5.69
2018-01-22T23:25:48.154Z,5.62
2018-01-22T23:28:15.712Z,5.66
2018-01-22T23:30:43.283Z,5.71
2018-01-22T23:33:10.861Z,5.71
2018-01-22T23:35:38.399Z,5.71
2018-01-22T23:38:06.018Z,5.70
2018-01-22T23:40:33.556Z,5.71
2018-01-22T23:43:01.101Z,5.76
2018-01-22T23:45:28.715Z,5.74
2018-01-22T23:47:56.265Z,5.71
2018-01-22T23:50:23.921Z,5.73
2018-01-22T23:52:51.463Z,5.84
2018-01-22T23:55:19.190Z,5.83
2018-01-22T23:57:46.748Z,5.84
